Hourly Reports from 6 nearest airdromes.

 

EGHI - Southampton Wx C, United Kingdom
Distance from station: NNW 4mi, 7km
Updated: Thu, 13-Aug-2020 18:50 BST
NOT Current
Partly Cloudy
Partly Cloudy
 Wind from NNW
Wind: NNW 5 mph , 7 km/h
Temperature: 21°C
Dew Point: 19°C
Humidity: 88%
Barometer: 1012 hPa
Clouds: Partly Cloudy
Visibility: 6 miles , 10 km
Cloud details: Few Clouds 427 m
Partly Cloudy 853 m
2020/08/13 17:50 EGHI 131750Z 34004KT 310V020 9999 FEW014 SCT028 21/19 Q1012
EGVP - Middle Wallop, United Kingdom
Distance from station: NW 20mi, 32km
Updated: Fri, 14-Aug-2020 01:50 BST
Mist, Partly cloudy
Mist, Partly cloudy
 Wind from N
Wind: N 3 mph , 6 km/h
Temperature: 19°C
Dew Point: 18°C
Humidity: 94%
Barometer: 1012 hPa
Summary: Mist
Clouds: Partly Cloudy
Visibility: 3 miles , 4 km
Cloud details: Few Clouds 152 m
Partly Cloudy 1341 m
2020/08/14 00:50 EGVP 140050Z AUTO 01003KT 4100 BR FEW005/// SCT044/// 19/18 Q1012 RERA
 
EGHH - Bournemouth Airp, United Kingdom
Distance from station: WSW 25mi, 40km
Updated: Thu, 13-Aug-2020 20:50 BST
NOT Current
Few Clouds
Few Clouds
 Wind from NE
Wind: NE 5 mph , 7 km/h
Temperature: 21°C
Dew Point: 19°C
Humidity: 88%
Barometer: 1012 hPa
Clouds: Few Clouds
Visibility: 6 miles , 10 km
Cloud details: Few Clouds 488 m
2020/08/13 19:50 EGHH 131950Z 04004KT 9999 FEW016 21/19 Q1012
EGDM - Boscombe Down, United Kingdom
Distance from station: NW 27mi, 43km
Updated: Fri, 14-Aug-2020 01:50 BST
Rain, Mostly cloudy
Rain, Mostly cloudy
 Wind from N
Wind: N 8 mph , 13 km/h
Temperature: 18°C
Dew Point: 18°C
Humidity: 100%
Barometer: 1013 hPa
Summary: Rain
Clouds: Mostly Cloudy
Visibility: 2 miles , 3 km
Cloud details: Partly Cloudy 91 m
Mostly Cloudy 1524 m
2020/08/14 00:50 EGDM 140050Z AUTO 36007KT 2800 RA SCT003/// BKN050/// 18/18 Q1013
 
EGVO - Odiham Raf, United Kingdom
Distance from station: NNE 28mi, 44km
Updated: Fri, 14-Aug-2020 01:50 BST
Overcast
Overcast
 Wind from NNE
Wind: NNE 8 mph , 13 km/h
Temperature: 18°C
Dew Point: 18°C
Humidity: 100%
Barometer: 1013 hPa
Clouds: Overcast
Visibility: 6 miles , 10 km
Cloud details: Overcast 91 m
2020/08/14 00:50 EGVO 140050Z AUTO 03007KT 9999 OVC003/// 18/18 Q1013
EGLF - Farnborough, United Kingdom
Distance from station: NE 35mi, 57km
Updated: Fri, 14-Aug-2020 01:50 BST
Overcast
Overcast
 Wind from NNE
Wind: NNE 8 mph , 13 km/h
Temperature: 18°C
Dew Point: 17°C
Humidity: 94%
Barometer: 1013 hPa
Clouds: Overcast
Visibility: 6 miles , 10 km
Cloud details: Overcast 152 m
2020/08/14 00:50 EGLF 140050Z AUTO 03007KT 9999 OVC005/// 18/17 Q1013

Metar display script from Saratoga-Weather.org